createdAt,value
2022-10-06T00:00:13.358Z,1.02
2022-10-06T00:00:45.521Z,1.20
2022-10-06T00:01:18.322Z,0.93
2022-10-06T00:01:50.330Z,0.93
2022-10-06T00:02:22.804Z,1.02
2022-10-06T00:02:54.971Z,1.02
2022-10-06T00:03:26.954Z,1.13
2022-10-06T00:03:58.903Z,1.17
2022-10-06T00:04:30.907Z,1.50
2022-10-06T00:05:03.057Z,1.20
2022-10-06T00:05:35.070Z,1.15
2022-10-06T00:06:07.450Z,1.30
2022-10-06T00:06:39.525Z,1.20
2022-10-06T00:07:11.526Z,1.25
2022-10-06T00:07:43.445Z,1.02
2022-10-06T00:08:15.517Z,1.30
2022-10-06T00:08:47.499Z,1.75
2022-10-06T00:09:19.455Z,1.33
2022-10-06T00:09:51.385Z,1.10
2022-10-06T00:10:23.453Z,0.82
2022-10-06T00:10:56.359Z,1.38
2022-10-06T00:11:28.327Z,1.00
2022-10-06T00:12:00.492Z,1.30
2022-10-06T00:12:42.753Z,1.13
2022-10-06T00:13:14.779Z,1.23
2022-10-06T00:13:46.810Z,0.98
2022-10-06T00:14:18.787Z,1.30
2022-10-06T00:14:50.715Z,1.17
2022-10-06T00:15:24.229Z,1.10
2022-10-06T00:15:56.391Z,1.02
2022-10-06T00:16:28.409Z,1.30
2022-10-06T00:17:00.325Z,1.00
2022-10-06T00:17:32.267Z,1.63
2022-10-06T00:18:04.281Z,1.20
2022-10-06T00:18:36.320Z,1.40
2022-10-06T00:19:08.306Z,1.17
2022-10-06T00:19:40.295Z,1.10
2022-10-06T00:20:12.290Z,0.95
2022-10-06T00:20:44.235Z,1.10
2022-10-06T00:21:16.491Z,1.23
2022-10-06T00:21:48.537Z,1.00
2022-10-06T00:22:20.447Z,0.90
2022-10-06T00:22:52.405Z,1.10
2022-10-06T00:23:24.823Z,1.60
2022-10-06T00:23:56.787Z,0.93
2022-10-06T00:24:28.709Z,1.15
2022-10-06T00:25:00.944Z,1.30
2022-10-06T00:25:33.338Z,1.00
2022-10-06T00:26:05.413Z,1.25
2022-10-06T00:26:37.677Z,1.00
2022-10-06T00:27:09.608Z,1.02
2022-10-06T00:27:42.996Z,0.98
2022-10-06T00:28:15.240Z,1.17
2022-10-06T00:28:47.903Z,1.30
2022-10-06T00:29:20.047Z,1.27
2022-10-06T00:29:52.086Z,1.00
2022-10-06T00:30:26.468Z,1.20
2022-10-06T00:31:00.752Z,1.20
2022-10-06T00:31:34.511Z,1.20
2022-10-06T00:32:06.571Z,1.48
2022-10-06T00:32:38.902Z,1.10
2022-10-06T00:33:11.907Z,1.15
2022-10-06T00:33:43.917Z,1.05
2022-10-06T00:34:15.849Z,1.30
2022-10-06T00:34:47.787Z,1.50
2022-10-06T00:35:20.263Z,1.20
2022-10-06T00:35:56.634Z,1.35
2022-10-06T00:36:28.584Z,1.20
2022-10-06T00:37:00.513Z,1.30
2022-10-06T00:37:35.140Z,1.35
2022-10-06T00:38:07.069Z,1.50
2022-10-06T00:38:39.057Z,1.17
2022-10-06T00:39:14.873Z,1.20
2022-10-06T00:39:47.507Z,1.10
2022-10-06T00:40:19.529Z,1.38
2022-10-06T00:40:51.743Z,1.40
2022-10-06T00:41:23.740Z,1.33
2022-10-06T00:41:56.202Z,1.40
2022-10-06T00:42:30.203Z,1.20
2022-10-06T00:43:03.540Z,1.58
2022-10-06T00:43:55.169Z,1.50
2022-10-06T00:44:27.752Z,1.55
2022-10-06T00:45:04.318Z,1.55
2022-10-06T00:45:39.738Z,1.40
2022-10-06T00:46:15.153Z,1.70
2022-10-06T00:46:52.255Z,1.20
2022-10-06T00:47:24.655Z,1.13
2022-10-06T00:47:58.815Z,1.27
2022-10-06T00:48:31.677Z,1.20
2022-10-06T00:49:07.328Z,1.27
2022-10-06T00:49:39.707Z,1.42
2022-10-06T00:50:12.595Z,1.53
2022-10-06T00:50:44.863Z,1.67
2022-10-06T00:51:16.983Z,1.38
2022-10-06T00:51:54.304Z,1.15
2022-10-06T00:52:28.174Z,1.40
2022-10-06T00:53:00.255Z,1.25
2022-10-06T00:53:32.279Z,1.40
2022-10-06T00:54:04.389Z,1.33
2022-10-06T00:54:36.751Z,1.30
2022-10-06T00:55:11.383Z,1.25
2022-10-06T00:55:43.361Z,1.65
2022-10-06T00:56:15.397Z,1.48
2022-10-06T00:56:47.482Z,1.20
2022-10-06T00:57:20.449Z,1.30
2022-10-06T00:57:52.751Z,1.10
2022-10-06T00:58:25.323Z,1.42
2022-10-06T00:58:57.571Z,1.50
2022-10-06T00:59:29.588Z,1.40
2022-10-06T01:00:02.255Z,1.40
2022-10-06T01:00:34.411Z,1.40
2022-10-06T01:01:08.650Z,1.23
2022-10-06T01:01:42.855Z,1.80
2022-10-06T01:02:27.368Z,1.20
2022-10-06T01:03:03.679Z,2.17
2022-10-06T01:03:39.095Z,1.27
2022-10-06T01:04:13.684Z,1.30
2022-10-06T01:04:48.001Z,1.42
2022-10-06T01:05:26.709Z,1.30
2022-10-06T01:05:59.773Z,1.55
2022-10-06T01:06:41.802Z,1.63
2022-10-06T01:07:14.047Z,1.48
2022-10-06T01:07:46.411Z,1.15
2022-10-06T01:08:18.730Z,1.70
2022-10-06T01:08:51.028Z,1.17
2022-10-06T01:09:24.052Z,1.50
2022-10-06T01:09:58.051Z,1.40
2022-10-06T01:10:29.998Z,1.25
2022-10-06T01:11:02.241Z,1.20
2022-10-06T01:11:37.731Z,1.42
2022-10-06T01:12:09.765Z,1.73
2022-10-06T01:12:41.762Z,1.25
2022-10-06T01:13:14.344Z,1.63
2022-10-06T01:13:46.474Z,1.23
2022-10-06T01:14:19.748Z,1.58
2022-10-06T01:14:52.317Z,1.45
2022-10-06T01:15:25.919Z,1.63
2022-10-06T01:16:10.603Z,1.52
2022-10-06T01:16:44.420Z,1.65
2022-10-06T01:17:16.343Z,1.40
2022-10-06T01:17:51.396Z,1.40
2022-10-06T01:18:27.105Z,1.42
2022-10-06T01:19:00.974Z,1.33
2022-10-06T01:19:37.671Z,1.25
2022-10-06T01:20:11.463Z,1.33
2022-10-06T01:20:50.137Z,1.30
2022-10-06T01:21:34.296Z,1.45
2022-10-06T01:22:08.486Z,1.50
2022-10-06T01:22:45.157Z,1.10
2022-10-06T01:23:17.410Z,1.40
2022-10-06T01:23:50.081Z,1.75
2022-10-06T01:24:22.790Z,1.52
2022-10-06T01:24:55.139Z,1.67
2022-10-06T01:25:28.189Z,1.48
2022-10-06T01:26:02.341Z,1.70
2022-10-06T01:26:34.945Z,1.50
2022-10-06T01:27:08.718Z,1.65
2022-10-06T01:27:42.104Z,1.60
2022-10-06T01:28:15.674Z,1.58
2022-10-06T01:28:48.178Z,1.73
2022-10-06T01:29:20.576Z,1.60
2022-10-06T01:29:53.999Z,1.42
2022-10-06T01:30:28.419Z,1.48
2022-10-06T01:31:01.998Z,1.80
2022-10-06T01:31:35.998Z,1.52
2022-10-06T01:32:08.026Z,1.80
2022-10-06T01:32:40.278Z,1.33
2022-10-06T01:33:12.310Z,1.85
2022-10-06T01:33:44.466Z,2.13
2022-10-06T01:34:17.473Z,1.52
2022-10-06T01:34:49.462Z,1.55
2022-10-06T01:35:21.889Z,1.27
2022-10-06T01:35:53.843Z,1.30
2022-10-06T01:36:27.575Z,1.60
2022-10-06T01:36:59.674Z,1.40
2022-10-06T01:37:32.563Z,1.33
2022-10-06T01:38:04.559Z,1.60
2022-10-06T01:38:36.793Z,1.30
2022-10-06T01:39:09.672Z,1.50
2022-10-06T01:39:43.646Z,1.70
2022-10-06T01:40:15.714Z,1.20
2022-10-06T01:40:48.275Z,1.40
2022-10-06T01:41:21.714Z,1.30
2022-10-06T01:41:54.977Z,1.58
2022-10-06T01:42:26.944Z,1.38
2022-10-06T01:42:58.886Z,1.45
2022-10-06T01:43:32.054Z,1.67
2022-10-06T01:44:04.075Z,1.65
2022-10-06T01:44:36.071Z,1.50
2022-10-06T01:45:08.487Z,1.50
2022-10-06T01:45:40.509Z,1.60
2022-10-06T01:46:14.028Z,1.35
2022-10-06T01:46:46.688Z,1.55
2022-10-06T01:47:18.709Z,1.48
2022-10-06T01:47:52.852Z,1.65
2022-10-06T01:48:25.361Z,1.38
2022-10-06T01:48:58.180Z,1.70
2022-10-06T01:49:30.497Z,1.55
2022-10-06T01:50:02.554Z,1.42
2022-10-06T01:50:35.679Z,1.52
2022-10-06T01:51:09.226Z,1.05
2022-10-06T01:51:41.924Z,1.30
2022-10-06T01:52:14.130Z,1.80
2022-10-06T01:52:46.134Z,1.70
2022-10-06T01:53:18.406Z,1.60
2022-10-06T01:53:50.402Z,1.60
2022-10-06T01:54:22.391Z,1.70
2022-10-06T01:54:54.728Z,1.40
2022-10-06T01:55:27.600Z,1.50
2022-10-06T01:56:01.995Z,1.70
2022-10-06T01:56:35.459Z,2.13
2022-10-06T01:57:08.702Z,1.88
2022-10-06T01:57:41.497Z,1.75
2022-10-06T01:58:14.622Z,1.90
2022-10-06T01:58:46.718Z,1.70
2022-10-06T01:59:18.908Z,1.63
2022-10-06T01:59:54.735Z,1.65
2022-10-06T02:00:28.340Z,1.60
2022-10-06T02:01:07.110Z,2.15
2022-10-06T02:01:40.767Z,2.08
2022-10-06T02:02:12.842Z,1.75
2022-10-06T02:02:44.944Z,1.40
2022-10-06T02:03:17.082Z,1.60
2022-10-06T02:03:49.012Z,1.40
2022-10-06T02:04:21.051Z,1.35
2022-10-06T02:04:53.026Z,1.50
2022-10-06T02:05:25.023Z,1.80
2022-10-06T02:05:58.165Z,1.38
2022-10-06T02:06:30.415Z,1.58
2022-10-06T02:07:04.054Z,1.52
2022-10-06T02:07:43.449Z,1.50
2022-10-06T02:08:18.423Z,1.50
2022-10-06T02:08:51.674Z,1.60
2022-10-06T02:09:23.652Z,1.38
2022-10-06T02:09:55.634Z,1.50
2022-10-06T02:10:27.615Z,1.10
2022-10-06T02:11:03.893Z,1.70
2022-10-06T02:11:36.358Z,1.50
2022-10-06T02:12:09.647Z,1.70
2022-10-06T02:12:44.558Z,1.75
2022-10-06T02:13:16.771Z,1.50
2022-10-06T02:13:48.736Z,1.70
2022-10-06T02:14:20.697Z,1.90
2022-10-06T02:14:52.698Z,1.58
2022-10-06T02:15:25.064Z,2.08
2022-10-06T02:15:57.681Z,1.27
2022-10-06T02:16:30.282Z,1.40
2022-10-06T02:17:02.568Z,1.60
2022-10-06T02:17:34.523Z,1.90
2022-10-06T02:18:06.627Z,1.42
2022-10-06T02:18:38.552Z,1.45
2022-10-06T02:19:10.514Z,1.50
2022-10-06T02:19:42.443Z,1.55
2022-10-06T02:20:14.767Z,1.65
2022-10-06T02:20:46.716Z,1.73
2022-10-06T02:21:20.446Z,1.80
2022-10-06T02:21:52.410Z,1.50
2022-10-06T02:22:24.409Z,1.33
2022-10-06T02:22:56.320Z,1.58
2022-10-06T02:23:29.668Z,1.52
2022-10-06T02:24:01.979Z,1.40
2022-10-06T02:24:34.200Z,1.40
2022-10-06T02:25:06.507Z,1.45
2022-10-06T02:25:38.892Z,1.15
2022-10-06T02:26:12.510Z,1.30
2022-10-06T02:26:44.469Z,1.80
2022-10-06T02:27:17.062Z,1.70
2022-10-06T02:27:49.259Z,1.63
2022-10-06T02:28:21.378Z,1.92
2022-10-06T02:28:53.446Z,1.50
2022-10-06T02:29:28.604Z,1.88
2022-10-06T02:30:01.692Z,1.75
2022-10-06T02:30:34.981Z,1.53
2022-10-06T02:31:08.637Z,1.55
2022-10-06T02:31:42.042Z,1.50
2022-10-06T02:32:14.142Z,1.77
2022-10-06T02:32:46.287Z,1.75
2022-10-06T02:33:18.833Z,1.70
2022-10-06T02:33:51.637Z,1.70
2022-10-06T02:34:24.401Z,1.50
2022-10-06T02:34:57.151Z,2.03
2022-10-06T02:35:29.133Z,1.27
2022-10-06T02:36:01.140Z,1.30
2022-10-06T02:36:33.727Z,1.55
2022-10-06T02:37:05.774Z,1.80
2022-10-06T02:37:37.761Z,1.70
2022-10-06T02:38:11.000Z,1.50
2022-10-06T02:38:43.507Z,2.15
2022-10-06T02:39:15.646Z,1.80
2022-10-06T02:39:47.599Z,1.60
2022-10-06T02:40:19.647Z,2.38
2022-10-06T02:40:52.891Z,1.73
2022-10-06T02:41:25.619Z,2.50
2022-10-06T02:41:57.570Z,2.00
2022-10-06T02:42:29.719Z,1.30
2022-10-06T02:43:01.793Z,2.13
2022-10-06T02:43:34.511Z,2.13
2022-10-06T02:44:06.704Z,1.65
2022-10-06T02:44:38.651Z,1.58
2022-10-06T02:45:10.703Z,1.60
2022-10-06T02:45:43.227Z,1.60
2022-10-06T02:46:15.511Z,1.23
2022-10-06T02:46:53.980Z,1.88
2022-10-06T02:47:26.069Z,2.15
2022-10-06T02:47:58.826Z,1.85
2022-10-06T02:48:31.694Z,1.92
2022-10-06T02:49:03.792Z,1.50
2022-10-06T02:49:35.715Z,1.73
2022-10-06T02:50:08.050Z,1.98
2022-10-06T02:50:40.427Z,1.83
2022-10-06T02:51:17.073Z,1.88
2022-10-06T02:51:49.920Z,2.60
2022-10-06T02:52:23.461Z,1.90
2022-10-06T02:52:55.723Z,1.70
2022-10-06T02:53:28.001Z,2.20
2022-10-06T02:54:00.248Z,1.42
2022-10-06T02:54:33.919Z,1.67
2022-10-06T02:55:06.402Z,2.15
2022-10-06T02:55:39.117Z,1.55
2022-10-06T02:56:12.865Z,1.40
2022-10-06T02:56:45.472Z,1.47
2022-10-06T02:57:18.297Z,1.35
2022-10-06T02:57:50.283Z,1.40
2022-10-06T02:58:22.273Z,1.75
2022-10-06T02:58:54.465Z,1.80
2022-10-06T02:59:38.924Z,1.88
2022-10-06T03:00:11.293Z,1.73
2022-10-06T03:00:43.264Z,1.42
2022-10-06T03:01:16.651Z,1.77
2022-10-06T03:01:49.024Z,1.80
2022-10-06T03:02:23.492Z,2.10
2022-10-06T03:02:55.837Z,1.50
2022-10-06T03:03:27.859Z,1.83
2022-10-06T03:04:00.236Z,1.65
2022-10-06T03:04:32.306Z,1.48
2022-10-06T03:05:04.585Z,1.60
2022-10-06T03:05:36.567Z,1.53
2022-10-06T03:06:21.788Z,1.67
2022-10-06T03:06:59.456Z,1.88
2022-10-06T03:07:36.370Z,1.43
2022-10-06T03:08:10.230Z,1.70
2022-10-06T03:08:42.235Z,1.98
2022-10-06T03:09:14.176Z,1.70
2022-10-06T03:09:48.449Z,1.63
2022-10-06T03:10:20.398Z,1.70
2022-10-06T03:10:52.359Z,1.60
2022-10-06T03:11:28.577Z,2.00
2022-10-06T03:12:00.591Z,1.95
2022-10-06T03:12:42.683Z,1.60
2022-10-06T03:13:14.697Z,2.20
2022-10-06T03:13:47.226Z,1.55
2022-10-06T03:14:22.085Z,2.20
2022-10-06T03:14:57.949Z,1.50
2022-10-06T03:15:30.291Z,1.90
2022-10-06T03:16:02.870Z,2.07
2022-10-06T03:16:38.662Z,1.50
2022-10-06T03:17:13.041Z,2.08
2022-10-06T03:17:52.478Z,1.70
2022-10-06T03:18:24.821Z,1.90
2022-10-06T03:18:56.960Z,2.30
2022-10-06T03:19:28.927Z,1.88
2022-10-06T03:20:00.958Z,1.88
2022-10-06T03:20:32.995Z,1.65
2022-10-06T03:21:05.548Z,1.95
2022-10-06T03:21:40.293Z,1.40
2022-10-06T03:22:12.347Z,1.60
2022-10-06T03:22:53.260Z,1.95
2022-10-06T03:23:25.539Z,2.22
2022-10-06T03:23:58.237Z,1.63
2022-10-06T03:24:31.963Z,1.50
2022-10-06T03:25:04.815Z,1.93
2022-10-06T03:25:37.584Z,2.30
2022-10-06T03:26:10.704Z,1.80
2022-10-06T03:26:44.185Z,1.80
2022-10-06T03:27:16.741Z,2.33
2022-10-06T03:27:48.791Z,1.60
2022-10-06T03:28:21.113Z,2.10
2022-10-06T03:28:53.620Z,2.70
2022-10-06T03:29:25.913Z,1.52
2022-10-06T03:30:01.152Z,1.77
2022-10-06T03:30:36.251Z,1.70
2022-10-06T03:31:08.940Z,1.48
2022-10-06T03:31:41.127Z,1.60
2022-10-06T03:32:13.154Z,1.52
2022-10-06T03:32:45.151Z,1.65
2022-10-06T03:33:17.198Z,1.90
2022-10-06T03:33:49.286Z,1.73
2022-10-06T03:34:21.373Z,2.03
2022-10-06T03:34:53.370Z,1.47
2022-10-06T03:35:25.718Z,2.03
2022-10-06T03:35:58.663Z,1.65
2022-10-06T03:36:33.421Z,1.73
2022-10-06T03:37:06.546Z,1.90
2022-10-06T03:37:38.514Z,1.83
2022-10-06T03:38:10.619Z,2.00
2022-10-06T03:38:43.040Z,1.80
2022-10-06T03:39:15.001Z,1.92
2022-10-06T03:39:47.649Z,1.88
2022-10-06T03:40:19.781Z,1.53
2022-10-06T03:40:51.776Z,2.00
2022-10-06T03:41:25.246Z,1.40
2022-10-06T03:41:57.259Z,2.05
2022-10-06T03:42:29.280Z,1.88
2022-10-06T03:43:02.024Z,1.85
2022-10-06T03:43:34.383Z,2.17
2022-10-06T03:44:06.617Z,1.70
2022-10-06T03:44:40.193Z,1.50
2022-10-06T03:45:12.663Z,1.70
2022-10-06T03:45:54.742Z,1.73
2022-10-06T03:46:28.388Z,2.08
2022-10-06T03:47:00.902Z,1.92
2022-10-06T03:47:32.933Z,1.65
2022-10-06T03:48:04.936Z,1.60
2022-10-06T03:48:37.127Z,2.10
2022-10-06T03:49:09.334Z,1.80
2022-10-06T03:49:41.307Z,2.00
2022-10-06T03:50:14.155Z,2.60
2022-10-06T03:50:53.311Z,1.52
2022-10-06T03:51:31.099Z,2.13
2022-10-06T03:52:03.072Z,1.90
2022-10-06T03:52:39.532Z,2.00
2022-10-06T03:53:11.496Z,2.45
2022-10-06T03:53:44.465Z,1.60
2022-10-06T03:54:16.479Z,1.40
2022-10-06T03:54:51.174Z,2.43
2022-10-06T03:55:23.147Z,2.08
2022-10-06T03:56:05.851Z,1.65
2022-10-06T03:56:39.937Z,1.92
2022-10-06T03:57:12.344Z,2.03
2022-10-06T03:57:44.475Z,1.70
2022-10-06T03:58:16.920Z,1.95
2022-10-06T03:58:53.353Z,1.75
2022-10-06T03:59:31.298Z,1.60
2022-10-06T04:00:03.975Z,1.80
2022-10-06T04:00:46.313Z,1.60
2022-10-06T04:01:21.095Z,2.08
2022-10-06T04:01:57.178Z,1.80
2022-10-06T04:02:32.679Z,1.70
2022-10-06T04:03:04.975Z,1.92
2022-10-06T04:03:36.982Z,2.03
2022-10-06T04:04:09.870Z,2.00
2022-10-06T04:04:41.923Z,1.95
2022-10-06T04:05:15.788Z,2.27
2022-10-06T04:05:54.857Z,1.60
2022-10-06T04:06:28.081Z,2.43
2022-10-06T04:07:00.252Z,2.20
2022-10-06T04:07:32.254Z,2.00
2022-10-06T04:08:04.226Z,1.73
2022-10-06T04:08:36.257Z,2.20
2022-10-06T04:09:14.709Z,2.22
2022-10-06T04:09:47.599Z,2.07
2022-10-06T04:10:21.364Z,1.80
2022-10-06T04:10:53.711Z,1.70
2022-10-06T04:11:27.058Z,2.35
2022-10-06T04:11:59.017Z,1.77
2022-10-06T04:12:31.055Z,1.90
2022-10-06T04:13:02.996Z,2.60
2022-10-06T04:13:35.303Z,2.60
2022-10-06T04:14:08.436Z,1.92
2022-10-06T04:14:40.957Z,1.70
2022-10-06T04:15:13.939Z,2.20
2022-10-06T04:15:46.731Z,1.90
2022-10-06T04:16:20.407Z,1.92
2022-10-06T04:16:52.560Z,1.58
2022-10-06T04:17:32.413Z,2.33
2022-10-06T04:18:04.374Z,2.05
2022-10-06T04:18:36.670Z,2.17
2022-10-06T04:19:10.010Z,1.83
2022-10-06T04:19:44.736Z,1.85
2022-10-06T04:20:16.748Z,1.73
2022-10-06T04:20:48.708Z,1.73
2022-10-06T04:21:20.950Z,2.13
2022-10-06T04:21:52.893Z,2.17
2022-10-06T04:22:28.075Z,1.80
2022-10-06T04:23:00.058Z,2.17
2022-10-06T04:23:32.264Z,2.53
2022-10-06T04:24:04.642Z,2.03
2022-10-06T04:24:36.699Z,2.38
2022-10-06T04:25:08.954Z,2.53
2022-10-06T04:25:41.023Z,1.80
2022-10-06T04:26:17.533Z,1.70
2022-10-06T04:26:53.005Z,2.00
2022-10-06T04:27:29.068Z,1.80
2022-10-06T04:28:10.951Z,1.97
2022-10-06T04:28:46.422Z,2.03
2022-10-06T04:29:18.633Z,1.93
2022-10-06T04:29:53.993Z,1.87
2022-10-06T04:30:26.651Z,1.70
2022-10-06T04:30:59.382Z,1.80
2022-10-06T04:31:33.124Z,2.05
2022-10-06T04:32:05.294Z,2.20
2022-10-06T04:32:40.289Z,1.97
2022-10-06T04:33:12.331Z,1.80
2022-10-06T04:33:45.708Z,1.77
2022-10-06T04:34:18.128Z,2.72
2022-10-06T04:34:51.377Z,2.08
2022-10-06T04:35:23.453Z,2.13
2022-10-06T04:35:58.575Z,1.90
2022-10-06T04:36:32.208Z,2.10
2022-10-06T04:37:04.226Z,1.88
2022-10-06T04:37:36.289Z,2.30
2022-10-06T04:38:09.253Z,2.00
2022-10-06T04:38:41.441Z,2.33
2022-10-06T04:39:13.442Z,2.38
2022-10-06T04:39:48.983Z,1.90
2022-10-06T04:40:21.047Z,1.83
2022-10-06T04:40:53.070Z,2.00
2022-10-06T04:41:34.859Z,2.03
2022-10-06T04:42:07.409Z,2.10
2022-10-06T04:42:40.193Z,2.15
2022-10-06T04:43:15.783Z,1.97
2022-10-06T04:43:48.688Z,1.83
2022-10-06T04:44:20.830Z,2.00
2022-10-06T04:44:53.245Z,2.53
2022-10-06T04:45:25.530Z,2.10
2022-10-06T04:45:58.478Z,2.00
2022-10-06T04:46:42.700Z,2.60
2022-10-06T04:47:16.011Z,2.33
2022-10-06T04:47:48.481Z,2.20
2022-10-06T04:48:20.540Z,1.70
2022-10-06T04:48:53.648Z,2.03
2022-10-06T04:49:27.291Z,2.00
2022-10-06T04:50:00.047Z,2.03
2022-10-06T04:50:32.025Z,1.70
2022-10-06T04:51:14.718Z,2.30
2022-10-06T04:51:47.409Z,2.50
2022-10-06T04:52:19.356Z,1.70
2022-10-06T04:52:52.991Z,2.40
2022-10-06T04:53:25.235Z,2.23
2022-10-06T04:53:57.243Z,2.17
2022-10-06T04:54:33.513Z,2.37
2022-10-06T04:55:06.875Z,2.17
2022-10-06T04:55:39.262Z,2.00
2022-10-06T04:56:12.260Z,2.50
2022-10-06T04:56:44.409Z,2.58
2022-10-06T04:57:16.497Z,1.93
2022-10-06T04:57:48.500Z,2.23
2022-10-06T04:58:20.465Z,2.00
2022-10-06T04:58:53.628Z,2.10
2022-10-06T04:59:46.100Z,2.10
2022-10-06T05:00:24.127Z,2.07
2022-10-06T05:00:56.637Z,2.10
2022-10-06T05:01:30.252Z,1.87
2022-10-06T05:02:03.232Z,2.60
2022-10-06T05:02:36.263Z,2.20
2022-10-06T05:03:08.342Z,1.70
2022-10-06T05:03:40.481Z,2.57
2022-10-06T05:04:12.464Z,2.53
2022-10-06T05:04:45.169Z,2.27
2022-10-06T05:05:18.559Z,1.70
2022-10-06T05:05:50.919Z,1.77
2022-10-06T05:06:27.492Z,2.03
2022-10-06T05:07:02.130Z,2.10
2022-10-06T05:07:34.163Z,2.50
2022-10-06T05:08:06.106Z,2.73
2022-10-06T05:08:38.534Z,2.42
2022-10-06T05:09:12.003Z,2.10
2022-10-06T05:09:48.192Z,2.40
2022-10-06T05:10:20.222Z,2.40
2022-10-06T05:10:58.540Z,2.83
2022-10-06T05:11:31.850Z,2.13
2022-10-06T05:12:04.350Z,2.00
2022-10-06T05:12:36.790Z,2.35
2022-10-06T05:13:12.518Z,2.28
2022-10-06T05:13:44.516Z,2.47
2022-10-06T05:14:16.520Z,1.70
2022-10-06T05:14:52.108Z,2.97
2022-10-06T05:15:24.273Z,2.28
2022-10-06T05:15:57.010Z,2.08
2022-10-06T05:16:29.960Z,1.93
2022-10-06T05:17:02.111Z,2.35
2022-10-06T05:17:35.560Z,2.13
2022-10-06T05:18:07.634Z,2.43
2022-10-06T05:18:39.720Z,2.07
2022-10-06T05:19:12.331Z,2.53
2022-10-06T05:19:45.475Z,2.30
2022-10-06T05:20:18.008Z,2.23
2022-10-06T05:20:57.023Z,2.40
2022-10-06T05:21:30.019Z,2.87
2022-10-06T05:22:03.374Z,2.53
2022-10-06T05:22:37.651Z,3.00
2022-10-06T05:23:09.656Z,2.23
2022-10-06T05:23:42.485Z,1.77
2022-10-06T05:24:14.456Z,2.30
2022-10-06T05:24:46.532Z,2.10
2022-10-06T05:25:18.520Z,2.57
2022-10-06T05:25:52.626Z,1.73
2022-10-06T05:26:26.962Z,2.37
2022-10-06T05:27:02.076Z,2.00
2022-10-06T05:27:34.412Z,2.73
2022-10-06T05:28:06.847Z,2.37
2022-10-06T05:28:39.007Z,2.73
2022-10-06T05:29:11.316Z,2.43
2022-10-06T05:29:43.724Z,2.60
2022-10-06T05:30:15.751Z,2.20
2022-10-06T05:31:07.944Z,2.67
2022-10-06T05:31:42.995Z,2.30
2022-10-06T05:32:15.492Z,2.10
2022-10-06T05:32:50.416Z,2.30
2022-10-06T05:33:23.138Z,2.50
2022-10-06T05:33:55.861Z,2.00
2022-10-06T05:34:27.832Z,1.90
2022-10-06T05:34:59.785Z,2.40
2022-10-06T05:35:31.761Z,2.13
2022-10-06T05:36:06.050Z,2.93
2022-10-06T05:36:38.096Z,2.40
2022-10-06T05:37:12.311Z,2.28
2022-10-06T05:37:44.700Z,2.37
2022-10-06T05:38:16.777Z,2.07
2022-10-06T05:38:48.883Z,2.03
2022-10-06T05:39:20.985Z,1.80
2022-10-06T05:40:00.289Z,2.53
2022-10-06T05:40:32.259Z,2.20
2022-10-06T05:41:08.424Z,2.27
2022-10-06T05:41:40.364Z,2.20
2022-10-06T05:42:14.686Z,2.50
2022-10-06T05:42:47.286Z,2.03
2022-10-06T05:43:19.308Z,1.90
2022-10-06T05:43:51.630Z,2.67
2022-10-06T05:44:23.602Z,2.30
2022-10-06T05:44:55.586Z,2.70
2022-10-06T05:45:27.557Z,2.23
2022-10-06T05:46:00.655Z,2.57
2022-10-06T05:46:33.577Z,2.57
2022-10-06T05:47:06.025Z,2.73
2022-10-06T05:47:37.998Z,2.40
2022-10-06T05:48:10.596Z,2.97
2022-10-06T05:48:44.563Z,2.30
2022-10-06T05:49:16.806Z,2.33
2022-10-06T05:50:00.554Z,2.10
2022-10-06T05:50:32.484Z,1.90
2022-10-06T05:51:08.449Z,2.60
2022-10-06T05:51:42.144Z,1.90
2022-10-06T05:52:24.916Z,1.97
2022-10-06T05:52:57.158Z,2.20
2022-10-06T05:53:29.912Z,1.93
2022-10-06T05:54:02.293Z,2.40
2022-10-06T05:54:34.491Z,2.57
2022-10-06T05:55:06.592Z,2.57
2022-10-06T05:55:38.609Z,2.20
2022-10-06T05:56:10.620Z,2.10
2022-10-06T05:56:44.142Z,2.57
2022-10-06T05:57:16.181Z,2.83
2022-10-06T05:57:48.174Z,2.03
2022-10-06T05:58:20.113Z,2.03
2022-10-06T05:58:53.264Z,2.83
2022-10-06T05:59:25.396Z,1.97
2022-10-06T05:59:59.609Z,2.53
2022-10-06T06:00:31.693Z,2.63
2022-10-06T06:01:07.757Z,2.17
2022-10-06T06:01:41.153Z,2.10
2022-10-06T06:02:20.811Z,2.43
2022-10-06T06:02:52.854Z,2.77
2022-10-06T06:03:24.936Z,2.13
2022-10-06T06:04:01.216Z,1.67
2022-10-06T06:04:33.659Z,2.50
2022-10-06T06:05:06.383Z,2.37
2022-10-06T06:05:42.366Z,3.07
2022-10-06T06:06:25.134Z,2.13
2022-10-06T06:06:58.961Z,3.23
2022-10-06T06:07:32.171Z,1.97
2022-10-06T06:08:04.387Z,2.10
2022-10-06T06:08:36.552Z,1.97
2022-10-06T06:09:18.557Z,2.10
2022-10-06T06:09:53.282Z,2.20
2022-10-06T06:10:25.279Z,2.17
2022-10-06T06:11:04.687Z,2.17
2022-10-06T06:11:37.834Z,1.97
2022-10-06T06:12:09.858Z,2.47
2022-10-06T06:12:48.609Z,2.63
2022-10-06T06:13:40.989Z,2.47
2022-10-06T06:14:19.237Z,2.30
2022-10-06T06:15:11.677Z,2.87
2022-10-06T06:16:00.707Z,2.13
2022-10-06T06:16:33.754Z,2.00
2022-10-06T06:17:05.985Z,2.67
2022-10-06T06:17:37.963Z,1.90
2022-10-06T06:18:12.327Z,2.40
2022-10-06T06:18:44.745Z,2.10
2022-10-06T06:19:18.651Z,2.17
2022-10-06T06:19:51.505Z,2.00
2022-10-06T06:20:23.517Z,2.03
2022-10-06T06:20:57.307Z,2.07
2022-10-06T06:21:29.802Z,2.20
2022-10-06T06:22:02.156Z,2.23
2022-10-06T06:22:35.924Z,2.37
2022-10-06T06:23:09.580Z,1.80
2022-10-06T06:23:46.462Z,2.70
2022-10-06T06:24:19.553Z,2.27
2022-10-06T06:24:51.565Z,1.90
2022-10-06T06:25:24.275Z,1.80
2022-10-06T06:26:01.975Z,1.87
2022-10-06T06:26:36.710Z,2.10
2022-10-06T06:27:09.444Z,2.50
2022-10-06T06:27:42.088Z,2.33
2022-10-06T06:28:14.136Z,1.93
2022-10-06T06:28:47.615Z,2.40
2022-10-06T06:29:23.227Z,2.23
2022-10-06T06:29:55.871Z,1.93
2022-10-06T06:30:28.132Z,2.40
2022-10-06T06:31:02.633Z,2.70
2022-10-06T06:31:38.774Z,1.83
2022-10-06T06:32:11.796Z,2.23
2022-10-06T06:32:43.805Z,2.07
2022-10-06T06:33:15.747Z,1.90
2022-10-06T06:33:48.431Z,2.00
2022-10-06T06:34:21.063Z,2.30
2022-10-06T06:34:53.182Z,1.93
2022-10-06T06:35:25.177Z,2.10
2022-10-06T06:35:58.081Z,2.00
2022-10-06T06:36:37.067Z,2.00
2022-10-06T06:37:15.226Z,1.97
2022-10-06T06:37:49.106Z,2.10
2022-10-06T06:38:21.079Z,2.00
2022-10-06T06:38:54.064Z,2.20
2022-10-06T06:39:26.713Z,2.20
2022-10-06T06:39:58.831Z,2.10
2022-10-06T06:40:30.894Z,2.23
2022-10-06T06:41:03.163Z,2.23
2022-10-06T06:41:37.835Z,1.88
2022-10-06T06:42:28.596Z,2.23
2022-10-06T06:43:21.183Z,2.00
2022-10-06T06:44:18.900Z,2.13
2022-10-06T06:45:03.856Z,2.37
2022-10-06T06:45:40.734Z,1.70
2022-10-06T06:47:14.175Z,1.93
2022-10-06T06:47:47.909Z,2.10
2022-10-06T06:48:19.901Z,2.03
2022-10-06T06:48:52.659Z,1.90
2022-10-06T06:49:24.821Z,2.37
2022-10-06T06:50:02.879Z,1.77
2022-10-06T06:50:35.647Z,2.17
2022-10-06T06:51:11.192Z,2.37
2022-10-06T06:51:44.330Z,2.00
2022-10-06T06:52:17.295Z,1.43
2022-10-06T06:52:49.242Z,2.17
2022-10-06T06:53:21.253Z,2.20
2022-10-06T06:53:53.614Z,2.30
2022-10-06T06:54:27.669Z,2.27
2022-10-06T06:55:05.853Z,2.03
2022-10-06T06:55:47.469Z,2.27
2022-10-06T06:56:21.537Z,1.83
2022-10-06T06:56:55.216Z,1.97
2022-10-06T06:57:27.550Z,2.27
2022-10-06T06:58:02.000Z,2.30
2022-10-06T06:58:34.452Z,2.07
2022-10-06T06:59:10.525Z,1.80
2022-10-06T06:59:42.541Z,1.90
2022-10-06T07:00:17.173Z,1.90
2022-10-06T07:00:50.429Z,2.10
2022-10-06T07:01:22.941Z,1.70
2022-10-06T07:01:55.055Z,1.83
2022-10-06T07:02:29.206Z,2.17
2022-10-06T07:03:02.005Z,1.80
2022-10-06T07:03:56.704Z,1.90
2022-10-06T07:04:28.819Z,2.07
2022-10-06T07:05:01.277Z,2.10
2022-10-06T07:05:33.358Z,2.33
2022-10-06T07:06:09.448Z,2.13
2022-10-06T07:06:41.935Z,2.20
2022-10-06T07:07:13.967Z,2.00
2022-10-06T07:07:46.856Z,2.27
2022-10-06T07:08:20.585Z,2.00
2022-10-06T07:08:53.375Z,1.83
2022-10-06T07:09:28.385Z,1.90
2022-10-06T07:10:06.345Z,2.07
2022-10-06T07:10:39.417Z,1.93
2022-10-06T07:11:16.356Z,1.90
2022-10-06T07:11:50.209Z,2.00
2022-10-06T07:12:25.340Z,2.17
2022-10-06T07:13:03.919Z,2.10
2022-10-06T07:13:35.903Z,2.00
2022-10-06T07:14:09.398Z,2.40
2022-10-06T07:15:01.329Z,2.13
2022-10-06T07:15:54.456Z,2.15
2022-10-06T07:16:45.690Z,1.70
2022-10-06T07:17:36.142Z,1.67
2022-10-06T07:18:28.485Z,2.00
2022-10-06T07:19:24.462Z,1.90
2022-10-06T07:20:17.298Z,1.73
2022-10-06T07:21:08.022Z,1.67
2022-10-06T07:21:59.046Z,2.27
2022-10-06T07:22:49.507Z,2.10
2022-10-06T07:23:55.483Z,2.00
2022-10-06T07:24:46.173Z,2.30
2022-10-06T07:25:26.031Z,2.00
2022-10-06T07:26:04.582Z,2.77
2022-10-06T07:26:36.715Z,2.27
2022-10-06T07:27:08.793Z,1.83
2022-10-06T07:27:42.307Z,2.27
2022-10-06T07:28:17.167Z,1.90
2022-10-06T07:28:49.557Z,1.90
2022-10-06T07:29:22.531Z,2.30
2022-10-06T07:29:56.634Z,1.75
2022-10-06T07:30:29.034Z,1.93
2022-10-06T07:31:07.324Z,2.13
2022-10-06T07:31:41.116Z,2.43
2022-10-06T07:32:13.393Z,1.83
2022-10-06T07:32:46.045Z,2.37